CheckWX is a tool to help pilots better visualize weather data.  It is not intended as a substitute for an official pre-flight weather briefing.

10:28:31 UTC

KMUT METAR
Muscatine Municipal Airport
Muscatine, Iowa, USA
Current

14 mins ago

KMUT 121015Z AUTO 30004KT 10SM CLR 19/18 A2988 RMK AO2
Observed
Jul-12 @ 10:15 UTC
Wind
  • 300° at 4 KTS
Visibility
10 SM
Flight Rules
VFR
Cloud Levels
  • Clear skies
Temperature
19°C / 66°F
Dewpoint
18°C / 64°F
Humidity
94%
Altimeter
29.88" Hg
Pressure
1011.82 hPa
Previous

34 mins ago

KMUT 120955Z AUTO 31004KT 10SM CLR 19/18 A2987 RMK AO2
Observed
Jul-12 @ 09:55 UTC
Wind
  • 310° at 4 KTS
Visibility
10 SM
Flight Rules
VFR
Cloud Levels
  • Clear skies
Temperature
19°C / 66°F
Dewpoint
18°C / 64°F
Humidity
94%
Altimeter
29.87" Hg
Pressure
1011.52 hPa
Previous

54 mins ago

KMUT 120935Z AUTO 27004KT 10SM FEW120 19/18 A2987 RMK AO2
Observed
Jul-12 @ 09:35 UTC
Wind
  • 270° at 4 KTS
Visibility
10 SM
Flight Rules
VFR
Cloud Levels
  • Few at 12,000' AGL
Temperature
19°C / 66°F
Dewpoint
18°C / 64°F
Humidity
94%
Altimeter
29.87" Hg
Pressure
1011.52 hPa